Terminal Aerodrome Forecast
Issued by NWS Cleveland, OH

Home | Current Version | Previous Version | Text Only | Print | Product List | Glossary On
Versions: 1 2 3 4 5 6 7 8 9 10 11 12 13 14 15 16 17 18 19 20
000
FTUS41 KCLE 101135
TAFERI
TAF
KERI 101135Z 1012/1112 23010KT P6SM OVC035
      TEMPO 1014/1018 3SM -SHSN OVC025
     FM101800 26010G18KT P6SM OVC050
     FM110000 23008KT P6SM OVC035
     FM111000 22008KT 3SM -SN OVC025=

USA.gov is the U.S. government's official web portal to all federal, state and local government web resources and services.